Time;durP1;ratioP1;P1;durP2;ratioP2;P2;SDS_P1;SDS_P2;PMS_P1;PMS_P2;Temp;Humidity;BMP_temperature;BMP_pressure;BME280_temperature;BME280_humidity;BME280_pressure;Samples;Min_cycle;Max_cycle;Signal;HPM_P1;HPM_P2
2022/01/10 00:01:12;;;;;;;47.67;12.88;;;0.60;92.50;;;;;;4835086;29;21423;-74
2022/01/10 00:03:42;;;;;;;56.13;14.77;;;0.60;92.60;;;;;;4835198;29;20046;-75
2022/01/10 00:06:10;;;;;;;50.78;16.55;;;0.50;92.70;;;;;;4832368;29;20047;-75
2022/01/10 00:08:40;;;;;;;66.60;17.52;;;0.50;92.90;;;;;;4832468;29;20510;-75
2022/01/10 00:11:08;;;;;;;54.10;13.23;;;0.50;93.00;;;;;;4823218;29;20077;-75
2022/01/10 00:13:35;;;;;;;45.92;13.82;;;0.60;93.10;;;;;;4814266;29;20065;-75
2022/01/10 00:16:03;;;;;;;42.92;13.32;;;0.60;93.00;;;;;;4832048;29;20051;-76
2022/01/10 00:18:31;;;;;;;44.38;13.45;;;0.70;93.00;;;;;;4831659;29;20554;-74
2022/01/10 00:20:58;;;;;;;57.42;13.98;;;0.70;93.00;;;;;;4829336;29;20050;-75
2022/01/10 00:23:26;;;;;;;52.75;13.32;;;0.80;92.90;;;;;;4829786;29;20049;-75
2022/01/10 00:25:53;;;;;;;51.78;13.65;;;0.80;92.90;;;;;;4831377;29;20053;-75
2022/01/10 00:28:21;;;;;;;44.17;14.55;;;0.80;92.80;;;;;;4829628;29;20505;-75
2022/01/10 00:30:49;;;;;;;50.83;14.68;;;0.80;92.80;;;;;;4832645;29;20069;-75
2022/01/10 00:33:16;;;;;;;49.35;15.15;;;0.90;92.80;;;;;;4831562;29;20057;-75
2022/01/10 00:35:45;;;;;;;47.75;14.90;;;0.90;92.80;;;;;;4820222;29;20046;-75
2022/01/10 00:38:13;;;;;;;52.22;14.43;;;0.90;92.80;;;;;;4832405;29;20046;-75
2022/01/10 00:40:42;;;;;;;46.30;14.70;;;1.00;92.80;;;;;;4815359;29;20054;-74
2022/01/10 00:43:17;;;;;;;49.92;13.30;;;1.00;92.80;;;;;;4814687;29;20057;-74
2022/01/10 00:45:46;;;;;;;45.22;13.98;;;1.10;92.70;;;;;;4816186;29;20069;-75
2022/01/10 00:48:13;;;;;;;43.75;13.07;;;1.10;92.70;;;;;;4830074;29;20061;-73
2022/01/10 00:50:41;;;;;;;39.22;12.70;;;1.10;92.70;;;;;;4813372;29;20506;-74
2022/01/10 00:53:09;;;;;;;50.15;14.05;;;1.10;92.70;;;;;;4835003;29;20056;-74
2022/01/10 00:55:37;;;;;;;41.47;12.88;;;1.10;92.70;;;;;;4832178;29;20569;-74
2022/01/10 00:58:05;;;;;;;53.45;13.40;;;1.10;92.70;;;;;;4818768;29;20375;-74
2022/01/10 01:00:34;;;;;;;36.42;13.10;;;1.20;92.70;;;;;;4811515;29;20061;-74
2022/01/10 01:03:02;;;;;;;44.05;13.30;;;1.20;92.80;;;;;;4823709;29;20289;-74
2022/01/10 01:05:33;;;;;;;49.90;14.02;;;1.30;92.70;;;;;;4831354;29;20463;-75
2022/01/10 01:08:06;;;;;;;45.67;14.20;;;1.30;92.70;;;;;;4829013;29;20497;-74
2022/01/10 01:13:53;;;;;;;46.60;12.98;;;1.30;92.60;;;;;;4831442;29;20057;-73
2022/01/10 01:26:37;;;;;;;40.92;14.10;;;1.40;92.50;;;;;;4835759;29;20057;-75
2022/01/10 01:29:07;;;;;;;43.65;13.25;;;1.40;92.50;;;;;;4825756;29;20050;-74
2022/01/10 01:31:35;;;;;;;59.50;14.13;;;1.50;92.40;;;;;;4836720;29;20318;-74
2022/01/10 01:34:03;;;;;;;49.17;14.32;;;1.50;92.40;;;;;;4831340;29;20054;-75
2022/01/10 01:36:32;;;;;;;55.38;15.82;;;1.50;92.40;;;;;;4836625;29;20046;-74
2022/01/10 01:39:05;;;;;;;50.50;14.50;;;1.60;92.40;;;;;;4811771;29;20058;-74
2022/01/10 01:44:02;;;;;;;48.92;14.45;;;1.70;92.40;;;;;;4830225;29;19924;-74
2022/01/10 01:46:34;;;;;;;46.53;15.20;;;1.70;92.40;;;;;;4823454;29;20042;-74
2022/01/10 01:49:05;;;;;;;46.47;14.15;;;1.80;92.40;;;;;;4820776;29;20050;-74
2022/01/10 01:51:33;;;;;;;46.20;14.27;;;1.80;92.30;;;;;;4831810;29;20394;-74
2022/01/10 01:54:01;;;;;;;56.13;14.50;;;1.80;92.30;;;;;;4820323;29;20050;-74
2022/01/10 01:56:29;;;;;;;40.78;14.55;;;1.80;92.30;;;;;;4810266;29;20051;-74
2022/01/10 01:58:57;;;;;;;47.15;14.50;;;1.80;92.20;;;;;;4838723;29;20069;-74
2022/01/10 02:01:25;;;;;;;45.78;13.98;;;1.80;92.30;;;;;;4828539;29;20069;-74
2022/01/10 02:03:53;;;;;;;49.50;14.00;;;1.80;92.30;;;;;;4841293;29;20050;-74
2022/01/10 02:06:27;;;;;;;55.38;14.70;;;1.80;92.30;;;;;;4840284;29;20042;-74
2022/01/10 02:08:55;;;;;;;43.95;13.35;;;1.80;92.20;;;;;;4826661;29;20050;-74
2022/01/10 02:11:23;;;;;;;43.72;13.93;;;1.80;92.20;;;;;;4815339;29;20054;-74
2022/01/10 02:13:54;;;;;;;47.83;14.32;;;1.80;92.20;;;;;;4841952;29;20042;-74
2022/01/10 02:16:41;;;;;;;48.10;14.95;;;1.80;92.20;;;;;;4842010;29;20046;-73
2022/01/10 02:19:18;;;;;;;45.17;14.85;;;1.80;92.30;;;;;;4847808;29;20049;-74
2022/01/10 02:21:45;;;;;;;44.92;14.43;;;1.90;92.30;;;;;;4832015;29;20410;-74
2022/01/10 02:24:13;;;;;;;41.78;13.10;;;1.90;92.30;;;;;;4824996;29;20050;-75
2022/01/10 02:26:49;;;;;;;38.50;13.38;;;1.90;92.30;;;;;;4821722;29;20054;-75
2022/01/10 02:29:17;;;;;;;40.83;14.38;;;1.90;92.20;;;;;;4850549;29;20046;-71
2022/01/10 02:31:45;;;;;;;51.13;14.43;;;1.90;92.20;;;;;;4831619;29;20050;-73
2022/01/10 02:34:19;;;;;;;34.95;13.63;;;2.00;92.30;;;;;;4825935;29;20066;-72
2022/01/10 02:36:46;;;;;;;43.85;13.98;;;2.00;92.30;;;;;;4848207;29;20053;-73
2022/01/10 02:39:19;;;;;;;39.08;14.15;;;2.00;92.30;;;;;;4829244;29;20054;-73
2022/01/10 02:41:47;;;;;;;42.42;14.90;;;2.00;92.30;;;;;;4830239;29;21309;-73
2022/01/10 02:44:17;;;;;;;35.42;14.43;;;2.00;92.30;;;;;;4836990;29;20062;-72
2022/01/10 02:46:47;;;;;;;49.00;14.98;;;2.00;92.30;;;;;;4841154;29;20042;-73
2022/01/10 02:49:37;;;;;;;41.70;14.27;;;2.00;92.30;;;;;;4825999;29;20426;-73
2022/01/10 02:52:06;;;;;;;45.53;14.13;;;2.10;92.30;;;;;;4829054;29;20419;-73
2022/01/10 02:54:34;;;;;;;42.63;14.43;;;2.10;92.30;;;;;;4825147;29;20410;-73
2022/01/10 02:57:10;;;;;;;40.28;13.95;;;2.10;92.30;;;;;;4840299;29;20043;-73
2022/01/10 02:59:39;;;;;;;46.28;14.40;;;2.10;92.30;;;;;;4836808;29;20061;-73
2022/01/10 03:02:08;;;;;;;46.30;14.68;;;2.10;92.30;;;;;;4830630;29;20039;-73
2022/01/10 03:04:37;;;;;;;45.58;13.77;;;2.20;92.30;;;;;;4813502;29;20062;-72
2022/01/10 03:07:05;;;;;;;35.78;13.00;;;2.10;92.30;;;;;;4839638;29;20054;-73
2022/01/10 03:09:34;;;;;;;39.40;14.07;;;2.20;92.30;;;;;;4839913;29;20073;-73
2022/01/10 03:12:02;;;;;;;39.17;14.77;;;2.20;92.30;;;;;;4850470;29;20050;-72
2022/01/10 03:14:30;;;;;;;38.15;14.13;;;2.20;92.30;;;;;;4828614;29;20050;-73
2022/01/10 03:16:58;;;;;;;59.05;16.00;;;2.20;92.30;;;;;;4853203;29;20046;-73
2022/01/10 03:19:26;;;;;;;43.20;15.27;;;2.30;92.30;;;;;;4826121;29;20050;-73
2022/01/10 03:21:53;;;;;;;44.92;15.05;;;2.30;92.30;;;;;;4833807;29;20066;-73
2022/01/10 03:24:21;;;;;;;43.05;15.40;;;2.30;92.30;;;;;;4812180;29;20049;-73
2022/01/10 03:26:50;;;;;;;53.22;15.10;;;2.30;92.20;;;;;;4838458;29;20517;-73
2022/01/10 03:29:18;;;;;;;44.75;14.07;;;2.30;92.20;;;;;;4828940;29;20490;-72
2022/01/10 03:31:47;;;;;;;41.95;14.95;;;2.30;92.20;;;;;;4843733;29;20615;-73
2022/01/10 03:34:15;;;;;;;37.25;14.55;;;2.30;92.20;;;;;;4843112;29;20058;-73
2022/01/10 03:36:44;;;;;;;47.53;13.88;;;2.30;92.20;;;;;;4824966;29;20046;-73
2022/01/10 03:39:13;;;;;;;42.65;14.93;;;2.30;92.20;;;;;;4839136;29;20046;-73
2022/01/10 03:41:41;;;;;;;45.63;14.60;;;2.30;92.20;;;;;;4832871;29;20058;-73
2022/01/10 03:44:11;;;;;;;46.30;14.05;;;2.30;92.20;;;;;;4844090;29;20783;-73
2022/01/10 03:46:39;;;;;;;47.00;14.95;;;2.30;92.20;;;;;;4833532;29;20045;-73
2022/01/10 03:49:08;;;;;;;42.00;14.35;;;2.30;92.20;;;;;;4842348;29;20057;-73
2022/01/10 03:51:36;;;;;;;39.55;14.77;;;2.30;92.20;;;;;;4843495;29;20057;-73
2022/01/10 03:54:04;;;;;;;42.42;15.40;;;2.40;92.20;;;;;;4844449;29;20046;-73
2022/01/10 03:56:32;;;;;;;41.80;15.20;;;2.40;92.20;;;;;;4823261;29;20057;-73
2022/01/10 03:59:04;;;;;;;52.50;15.57;;;2.40;92.20;;;;;;4830354;29;20644;-73
2022/01/10 04:01:33;;;;;;;44.42;14.77;;;2.40;92.20;;;;;;4843492;29;20409;-73
2022/01/10 04:04:01;;;;;;;40.60;15.25;;;2.50;92.20;;;;;;4843738;29;20066;-73
2022/01/10 04:06:29;;;;;;;43.40;14.68;;;2.40;92.20;;;;;;4839802;29;20046;-73
2022/01/10 04:08:56;;;;;;;50.72;15.70;;;2.40;92.10;;;;;;4843070;29;20065;-73
2022/01/10 04:11:25;;;;;;;47.08;16.15;;;2.40;92.20;;;;;;4834154;29;20105;-72
2022/01/10 04:13:53;;;;;;;42.95;15.55;;;2.40;92.20;;;;;;4835448;29;20533;-72
2022/01/10 04:16:21;;;;;;;43.65;16.00;;;2.50;92.20;;;;;;4822315;29;20047;-73
2022/01/10 04:18:50;;;;;;;52.47;16.80;;;2.40;92.20;;;;;;4842223;29;20046;-72
2022/01/10 04:21:17;;;;;;;41.30;14.63;;;2.50;92.20;;;;;;4846611;29;20053;-73
2022/01/10 04:23:45;;;;;;;40.97;15.07;;;2.40;92.10;;;;;;4833723;29;20050;-72
2022/01/10 04:26:13;;;;;;;50.05;16.00;;;2.50;92.10;;;;;;4834507;29;20121;-73
2022/01/10 04:28:44;;;;;;;38.13;14.70;;;2.50;92.10;;;;;;4853324;29;20383;-73
2022/01/10 04:31:13;;;;;;;50.92;16.35;;;2.40;92.10;;;;;;4844804;29;20045;-73
2022/01/10 04:33:42;;;;;;;46.63;16.30;;;2.50;92.20;;;;;;4848097;29;20046;-73
2022/01/10 04:36:09;;;;;;;50.92;17.05;;;2.50;92.20;;;;;;4837023;29;20073;-73
2022/01/10 04:38:37;;;;;;;43.40;16.23;;;2.50;92.20;;;;;;4823072;29;20061;-73
2022/01/10 04:41:06;;;;;;;37.95;15.70;;;2.50;92.20;;;;;;4835273;29;20497;-73
2022/01/10 04:43:35;;;;;;;47.47;16.38;;;2.60;92.20;;;;;;4827052;29;20057;-73
2022/01/10 04:46:04;;;;;;;44.60;15.82;;;2.60;92.20;;;;;;4828355;29;20053;-72
2022/01/10 04:48:32;;;;;;;52.42;15.93;;;2.60;92.10;;;;;;4853300;29;20418;-73
2022/01/10 04:51:13;;;;;;;39.15;16.40;;;2.60;92.10;;;;;;4848590;29;20070;-73
2022/01/10 04:53:50;;;;;;;43.40;14.93;;;2.60;92.10;;;;;;4841330;29;20042;-73
2022/01/10 04:56:19;;;;;;;40.47;14.77;;;2.60;92.10;;;;;;4823097;29;20062;-73
2022/01/10 04:58:51;;;;;;;39.75;15.02;;;2.60;92.10;;;;;;4842780;29;20042;-73
2022/01/10 05:01:21;;;;;;;41.83;13.68;;;2.60;92.10;;;;;;4830750;29;20050;-73
2022/01/10 05:03:52;;;;;;;49.28;15.07;;;2.60;92.20;;;;;;4830629;29;20046;-73
2022/01/10 05:06:20;;;;;;;43.55;13.18;;;2.70;92.20;;;;;;4837095;29;20064;-73
2022/01/10 05:08:50;;;;;;;50.30;13.07;;;2.80;92.20;;;;;;4824783;29;20058;-72
2022/01/10 05:11:32;;;;;;;48.60;13.00;;;2.80;92.20;;;;;;4822249;29;20081;-73
2022/01/10 05:14:00;;;;;;;44.15;13.07;;;3.00;92.30;;;;;;4821841;29;20486;-73
2022/01/10 05:16:28;;;;;;;38.55;13.15;;;3.00;92.30;;;;;;4843992;29;20053;-73
2022/01/10 05:18:56;;;;;;;46.42;11.05;;;3.10;92.30;;;;;;4845294;29;20414;-73
2022/01/10 05:21:24;;;;;;;46.20;11.05;;;3.20;92.30;;;;;;4822225;29;20482;-72
2022/01/10 05:23:52;;;;;;;38.78;10.05;;;3.30;92.20;;;;;;4822256;29;20062;-72
2022/01/10 05:26:19;;;;;;;38.47;9.75;;;3.30;92.20;;;;;;4825376;29;20050;-72
2022/01/10 05:28:47;;;;;;;37.22;10.25;;;3.30;92.10;;;;;;4821913;29;20502;-72
2022/01/10 05:31:15;;;;;;;42.20;10.20;;;3.40;92.20;;;;;;4826617;29;20503;-72
2022/01/10 05:33:55;;;;;;;48.13;10.93;;;3.50;92.20;;;;;;4821106;29;20039;-72
2022/01/10 05:36:23;;;;;;;35.67;10.45;;;3.50;92.20;;;;;;4819503;29;20495;-72
2022/01/10 05:38:51;;;;;;;35.90;10.60;;;3.50;92.20;;;;;;4828136;29;20058;-72
2022/01/10 05:41:21;;;;;;;40.78;10.50;;;3.50;92.10;;;;;;4823145;29;20062;-72
2022/01/10 05:43:49;;;;;;;49.05;12.00;;;3.60;92.20;;;;;;4817690;29;20046;-72
2022/01/10 05:46:20;;;;;;;46.92;10.93;;;3.50;92.20;;;;;;4841101;29;20046;-72
2022/01/10 05:48:52;;;;;;;51.47;11.85;;;3.50;92.20;;;;;;4811489;29;20399;-72
2022/01/10 05:51:22;;;;;;;40.75;10.80;;;3.50;92.20;;;;;;4833842;29;20048;-72
2022/01/10 05:53:56;;;;;;;42.22;10.73;;;3.50;92.20;;;;;;4822213;29;20061;-72
2022/01/10 05:56:25;;;;;;;41.15;11.88;;;3.50;92.30;;;;;;4828880;29;20053;-72
2022/01/10 05:58:56;;;;;;;38.97;11.27;;;3.50;92.30;;;;;;4828603;29;20058;-72
2022/01/10 06:01:24;;;;;;;54.97;11.70;;;3.50;92.30;;;;;;4812623;29;20060;-72
2022/01/10 06:04:00;;;;;;;34.05;10.23;;;3.50;92.30;;;;;;4833450;29;20053;-72
2022/01/10 06:06:37;;;;;;;45.20;11.05;;;3.60;92.30;;;;;;4835904;29;20053;-72
2022/01/10 06:09:05;;;;;;;47.00;10.68;;;3.60;92.30;;;;;;4831583;29;20072;-72
2022/01/10 06:11:34;;;;;;;39.30;10.02;;;3.60;92.30;;;;;;4821264;29;20070;-72
2022/01/10 06:14:10;;;;;;;42.28;10.55;;;3.60;92.30;;;;;;4823724;29;20049;-72
2022/01/10 06:16:37;;;;;;;54.35;10.38;;;3.60;92.40;;;;;;4834859;29;20057;-72
2022/01/10 06:19:05;;;;;;;43.72;9.90;;;3.70;92.40;;;;;;4813389;29;20050;-72
2022/01/10 06:21:33;;;;;;;46.33;9.70;;;3.70;92.40;;;;;;4823690;29;20074;-72
2022/01/10 06:24:02;;;;;;;51.67;9.50;;;3.80;92.40;;;;;;4844223;29;20049;-73
2022/01/10 06:26:30;;;;;;;39.58;9.55;;;3.80;92.40;;;;;;4824754;29;20499;-73
2022/01/10 06:28:58;;;;;;;45.65;9.88;;;3.80;92.30;;;;;;4840811;29;20050;-73
2022/01/10 06:31:27;;;;;;;41.03;9.38;;;3.90;92.30;;;;;;4836092;29;20053;-74
2022/01/10 06:34:03;;;;;;;43.63;9.50;;;3.90;92.30;;;;;;4836686;29;20054;-73
2022/01/10 06:36:31;;;;;;;34.63;9.07;;;3.90;92.30;;;;;;4851212;29;20054;-73
2022/01/10 06:38:59;;;;;;;46.30;10.98;;;3.90;92.30;;;;;;4832954;29;20050;-72
2022/01/10 06:41:27;;;;;;;48.13;13.20;;;4.00;92.30;;;;;;4850528;29;20046;-72
2022/01/10 06:43:54;;;;;;;54.70;10.30;;;4.00;92.30;;;;;;4852795;29;20058;-73
2022/01/10 06:46:23;;;;;;;43.78;10.75;;;4.00;92.30;;;;;;4831428;29;20050;-73
2022/01/10 06:48:50;;;;;;;39.30;10.23;;;4.00;92.30;;;;;;4829156;29;20046;-74
2022/01/10 06:51:21;;;;;;;50.35;11.27;;;4.00;92.30;;;;;;4825563;29;20039;-74
2022/01/10 06:53:51;;;;;;;46.30;10.27;;;4.00;92.30;;;;;;4838751;29;20034;-74
2022/01/10 06:56:20;;;;;;;39.92;9.98;;;4.10;92.30;;;;;;4837870;29;20053;-75
2022/01/10 06:58:48;;;;;;;57.45;12.00;;;4.10;92.30;;;;;;4825493;29;20038;-75
2022/01/10 07:01:24;;;;;;;50.38;11.50;;;4.10;92.30;;;;;;4836076;29;20046;-74
2022/01/10 07:03:54;;;;;;;41.15;9.98;;;4.20;92.40;;;;;;4837729;29;20046;-73
2022/01/10 07:06:24;;;;;;;37.13;9.40;;;4.20;92.30;;;;;;4840683;29;20049;-73
2022/01/10 07:08:53;;;;;;;51.15;10.15;;;4.20;92.30;;;;;;4841574;29;20054;-74
2022/01/10 07:11:30;;;;;;;41.60;9.95;;;4.20;92.30;;;;;;4849034;29;20528;-74
2022/01/10 07:13:59;;;;;;;41.33;10.32;;;4.30;92.30;;;;;;4840239;29;20037;-74
2022/01/10 07:16:28;;;;;;;42.05;9.70;;;4.30;92.30;;;;;;4831289;29;20267;-74
2022/01/10 07:19:02;;;;;;;44.72;9.70;;;4.30;92.30;;;;;;4839913;29;20059;-74
2022/01/10 07:21:39;;;;;;;47.08;9.30;;;4.30;92.30;;;;;;4833032;29;20050;-73
2022/01/10 07:24:11;;;;;;;44.70;9.02;;;4.40;92.30;;;;;;4829089;29;20046;-73
2022/01/10 07:26:39;;;;;;;43.53;8.55;;;4.40;92.30;;;;;;4836592;29;20046;-74
2022/01/10 07:29:08;;;;;;;46.63;8.88;;;4.40;92.30;;;;;;4839699;29;20077;-73
2022/01/10 07:31:36;;;;;;;43.85;9.63;;;4.40;92.30;;;;;;4831100;29;20050;-73
2022/01/10 07:34:06;;;;;;;42.03;8.68;;;4.40;92.30;;;;;;4827984;29;20058;-73
2022/01/10 07:36:35;;;;;;;44.08;8.10;;;4.50;92.30;;;;;;4836031;29;20062;-74
2022/01/10 07:39:04;;;;;;;44.55;8.15;;;4.50;92.30;;;;;;4847895;29;20042;-73
2022/01/10 07:41:32;;;;;;;42.38;8.05;;;4.50;92.30;;;;;;4829481;29;20055;-73
2022/01/10 07:44:00;;;;;;;43.40;10.13;;;4.60;92.30;;;;;;4840451;29;20058;-73
2022/01/10 07:46:28;;;;;;;38.15;9.68;;;4.60;92.30;;;;;;4837715;29;20739;-73
2022/01/10 07:48:55;;;;;;;38.47;8.63;;;4.60;92.30;;;;;;4838106;29;20045;-73
2022/01/10 07:51:24;;;;;;;42.35;8.88;;;4.60;92.30;;;;;;4855049;29;20050;-74
2022/01/10 07:53:52;;;;;;;37.83;8.57;;;4.60;92.30;;;;;;4837948;29;20042;-73
2022/01/10 07:56:20;;;;;;;42.70;8.25;;;4.60;92.30;;;;;;4829126;29;20053;-73
2022/01/10 07:58:51;;;;;;;46.28;8.52;;;4.60;92.30;;;;;;4854888;29;20073;-74
2022/01/10 08:01:19;;;;;;;44.15;8.07;;;4.70;92.30;;;;;;4841086;29;20097;-73
2022/01/10 08:03:50;;;;;;;37.58;8.35;;;4.70;92.30;;;;;;4856159;29;20042;-73
2022/01/10 08:06:19;;;;;;;32.47;8.15;;;4.70;92.30;;;;;;4842878;29;20529;-73
2022/01/10 08:08:47;;;;;;;47.25;8.27;;;4.70;92.30;;;;;;4842037;29;20152;-74
2022/01/10 08:11:14;;;;;;;39.83;7.38;;;4.70;92.30;;;;;;4840574;29;20383;-74
2022/01/10 08:13:42;;;;;;;36.10;8.57;;;4.80;92.30;;;;;;4824350;29;20486;-74
2022/01/10 08:16:10;;;;;;;37.67;7.63;;;4.80;92.30;;;;;;4840945;29;20053;-74
2022/01/10 08:18:38;;;;;;;37.55;7.93;;;4.80;92.30;;;;;;4832913;29;20055;-75
2022/01/10 08:21:06;;;;;;;39.85;8.80;;;4.80;92.30;;;;;;4840719;29;20049;-76
2022/01/10 08:23:34;;;;;;;44.13;9.23;;;4.90;92.30;;;;;;4828977;29;20058;-75
2022/01/10 08:26:03;;;;;;;30.48;7.45;;;4.80;92.30;;;;;;4829025;29;20413;-74
2022/01/10 08:28:36;;;;;;;37.10;7.38;;;4.90;92.20;;;;;;4836846;29;20053;-74
2022/01/10 08:31:04;;;;;;;33.83;7.53;;;4.90;92.20;;;;;;4842174;29;20050;-74
2022/01/10 08:33:32;;;;;;;44.65;8.77;;;5.00;92.20;;;;;;4816045;29;20061;-74
2022/01/10 08:35:59;;;;;;;44.30;8.00;;;5.00;92.20;;;;;;4824257;29;20054;-74
2022/01/10 08:38:27;;;;;;;45.20;8.90;;;5.00;92.20;;;;;;4822873;29;20054;-74
2022/01/10 08:40:55;;;;;;;39.80;7.97;;;5.00;92.20;;;;;;4824352;29;20046;-74
2022/01/10 08:43:22;;;;;;;43.22;9.18;;;5.00;92.20;;;;;;4823239;29;20411;-74
2022/01/10 08:45:50;;;;;;;35.78;8.27;;;5.10;92.20;;;;;;4824208;29;20058;-74
2022/01/10 08:48:18;;;;;;;38.95;7.65;;;5.10;92.10;;;;;;4822878;29;20487;-74
2022/01/10 08:50:46;;;;;;;36.90;8.43;;;5.10;92.20;;;;;;4823672;29;20058;-75
2022/01/10 08:53:14;;;;;;;38.97;7.28;;;5.10;92.10;;;;;;4823921;29;20054;-75
2022/01/10 08:55:41;;;;;;;36.28;8.57;;;5.10;92.10;;;;;;4824077;29;20069;-74
2022/01/10 08:58:10;;;;;;;35.45;7.10;;;5.20;92.10;;;;;;4808168;29;20065;-75
2022/01/10 09:00:37;;;;;;;37.10;8.00;;;5.20;92.10;;;;;;4824376;29;20058;-74
2022/01/10 09:03:05;;;;;;;34.42;7.28;;;5.20;92.10;;;;;;4807893;29;20054;-75
2022/01/10 09:05:33;;;;;;;29.15;7.07;;;5.30;92.10;;;;;;4824180;29;20050;-75
2022/01/10 09:08:02;;;;;;;34.50;7.30;;;5.30;92.10;;;;;;4807676;29;20057;-74
2022/01/10 09:10:30;;;;;;;30.20;7.35;;;5.30;92.00;;;;;;4823604;29;20499;-74
2022/01/10 09:13:00;;;;;;;36.72;7.47;;;5.30;92.00;;;;;;4823847;29;20054;-75
2022/01/10 09:15:28;;;;;;;25.48;6.07;;;5.30;91.90;;;;;;4824186;29;20050;-74
2022/01/10 09:17:56;;;;;;;39.25;7.07;;;5.30;91.90;;;;;;4822033;29;20415;-75
2022/01/10 09:20:24;;;;;;;31.80;7.00;;;5.30;91.90;;;;;;4824363;29;20058;-75
2022/01/10 09:22:53;;;;;;;34.42;7.55;;;5.40;91.90;;;;;;4822816;29;20522;-74
2022/01/10 09:25:20;;;;;;;35.40;6.50;;;5.50;91.90;;;;;;4822347;29;20062;-75
2022/01/10 09:27:49;;;;;;;35.42;6.95;;;5.50;91.90;;;;;;4806968;29;20138;-75
2022/01/10 09:30:16;;;;;;;28.35;6.38;;;5.50;91.80;;;;;;4807486;29;20518;-74
2022/01/10 09:32:44;;;;;;;29.75;6.50;;;5.50;91.80;;;;;;4822934;29;20058;-75
2022/01/10 09:35:11;;;;;;;36.70;5.90;;;5.50;91.80;;;;;;4806980;29;20550;-74
2022/01/10 09:37:39;;;;;;;23.20;5.47;;;5.60;91.70;;;;;;4823337;29;20054;-75
2022/01/10 09:40:07;;;;;;;32.35;6.30;;;5.60;91.70;;;;;;4807566;29;20058;-75
2022/01/10 09:42:35;;;;;;;26.85;6.40;;;5.60;91.70;;;;;;4807191;29;20043;-75
2022/01/10 09:45:05;;;;;;;28.88;5.80;;;5.70;91.70;;;;;;4806937;29;20065;-76
2022/01/10 09:47:33;;;;;;;24.25;5.47;;;5.70;91.60;;;;;;4823385;29;20494;-76
2022/01/10 09:50:08;;;;;;;31.90;6.32;;;5.70;91.60;;;;;;4823346;29;20054;-75
2022/01/10 09:52:38;;;;;;;33.75;6.53;;;5.70;91.60;;;;;;4830242;29;20062;-74
2022/01/10 09:55:06;;;;;;;28.17;6.25;;;5.80;91.50;;;;;;4841424;29;20046;-75
2022/01/10 09:57:34;;;;;;;33.30;7.65;;;5.80;91.50;;;;;;4841119;29;20057;-75
2022/01/10 10:00:03;;;;;;;37.03;6.18;;;5.80;91.40;;;;;;4826537;29;20054;-74
2022/01/10 10:02:40;;;;;;;33.35;7.40;;;5.80;91.50;;;;;;4844497;29;20050;-74
2022/01/10 10:05:11;;;;;;;30.88;6.20;;;5.80;91.40;;;;;;4844557;29;20506;-74
2022/01/10 10:07:40;;;;;;;30.75;6.47;;;5.80;91.40;;;;;;4828381;29;20049;-74
2022/01/10 10:10:11;;;;;;;34.15;6.60;;;5.80;91.40;;;;;;4844104;29;20553;-74
2022/01/10 10:12:45;;;;;;;28.02;6.45;;;5.80;91.40;;;;;;4844662;29;20058;-75
2022/01/10 10:15:16;;;;;;;32.97;6.97;;;5.90;91.30;;;;;;4828326;29;20050;-75
2022/01/10 10:17:45;;;;;;;36.28;7.15;;;5.90;91.30;;;;;;4828205;29;20054;-75
2022/01/10 10:20:18;;;;;;;44.10;6.95;;;5.90;91.30;;;;;;4844556;29;20061;-75
2022/01/10 10:23:06;;;;;;;35.55;7.45;;;5.90;91.30;;;;;;4831007;29;20058;-75
2022/01/10 10:25:34;;;;;;;30.42;6.97;;;5.90;91.20;;;;;;4825489;29;20054;-75
2022/01/10 10:28:02;;;;;;;38.35;8.05;;;5.90;91.20;;;;;;4826115;29;20051;-75
2022/01/10 10:30:31;;;;;;;29.70;6.85;;;5.90;91.20;;;;;;4824729;29;20050;-75
2022/01/10 10:33:11;;;;;;;28.48;7.35;;;5.90;91.20;;;;;;4824993;29;20059;-75
2022/01/10 10:35:39;;;;;;;29.73;7.22;;;6.00;91.20;;;;;;4809442;29;20058;-75
2022/01/10 10:38:07;;;;;;;26.75;7.15;;;5.90;91.20;;;;;;4824258;29;20058;-75
2022/01/10 10:40:43;;;;;;;33.40;8.10;;;6.00;91.20;;;;;;4825960;29;20054;-75
2022/01/10 10:43:12;;;;;;;37.55;8.43;;;6.00;91.20;;;;;;4825928;29;20058;-75
2022/01/10 10:45:39;;;;;;;36.30;7.78;;;6.00;91.20;;;;;;4825104;29;20062;-75
2022/01/10 10:48:09;;;;;;;38.47;7.72;;;6.00;91.20;;;;;;4829202;29;20053;-75
2022/01/10 10:50:41;;;;;;;35.65;7.57;;;6.10;91.10;;;;;;4844199;29;20042;-75
2022/01/10 10:53:13;;;;;;;35.47;7.20;;;6.10;91.10;;;;;;4844386;29;20053;-75
2022/01/10 10:55:45;;;;;;;37.53;7.40;;;6.20;91.10;;;;;;4827804;29;20054;-75
2022/01/10 10:58:13;;;;;;;35.13;8.07;;;6.20;91.10;;;;;;4827409;29;20301;-75
2022/01/10 11:00:41;;;;;;;31.88;7.68;;;6.20;91.00;;;;;;4844016;29;20049;-74
2022/01/10 11:03:12;;;;;;;33.40;8.93;;;6.20;91.00;;;;;;4843084;29;20065;-74
2022/01/10 11:05:42;;;;;;;33.92;7.68;;;6.30;91.00;;;;;;4843394;29;20057;-75
2022/01/10 11:08:10;;;;;;;43.47;7.85;;;6.20;91.00;;;;;;4844226;29;20062;-73
2022/01/10 11:10:40;;;;;;;29.00;7.47;;;6.30;90.90;;;;;;4842324;29;20058;-73
2022/01/10 11:13:09;;;;;;;35.70;8.55;;;6.30;90.90;;;;;;4843722;29;20061;-73
2022/01/10 11:15:38;;;;;;;38.85;8.00;;;6.30;90.90;;;;;;4843754;29;20053;-74
2022/01/10 11:18:08;;;;;;;32.75;7.97;;;6.30;90.90;;;;;;4827272;29;20054;-74
2022/01/10 11:20:42;;;;;;;30.95;7.95;;;6.30;90.90;;;;;;4843581;29;20045;-74
2022/01/10 11:23:30;;;;;;;34.67;7.97;;;6.40;90.90;;;;;;4828111;29;20075;-74
2022/01/10 11:25:57;;;;;;;36.50;7.63;;;6.50;90.80;;;;;;4824727;29;20058;-74
2022/01/10 11:28:27;;;;;;;34.85;7.05;;;6.60;90.80;;;;;;4824581;29;20062;-74
2022/01/10 11:31:02;;;;;;;31.90;7.10;;;6.60;90.70;;;;;;4824158;29;20053;-74
2022/01/10 11:33:36;;;;;;;34.05;8.13;;;6.60;90.60;;;;;;4823708;29;20525;-74
2022/01/10 11:36:08;;;;;;;30.63;7.05;;;6.70;90.50;;;;;;4825100;29;20050;-74
2022/01/10 11:38:45;;;;;;;40.40;8.10;;;6.80;90.50;;;;;;4825044;29;20073;-74
2022/01/10 11:41:19;;;;;;;33.63;7.30;;;6.80;90.50;;;;;;4824677;29;20373;-74
2022/01/10 11:44:01;;;;;;;36.53;8.05;;;6.90;90.30;;;;;;4823511;29;20050;-74
2022/01/10 11:46:47;;;;;;;33.70;8.05;;;6.90;90.20;;;;;;4823201;29;20083;-74
2022/01/10 11:49:21;;;;;;;41.40;8.30;;;7.00;90.10;;;;;;4793599;29;20509;-74
2022/01/10 11:51:52;;;;;;;29.80;8.00;;;7.00;90.00;;;;;;4823542;29;20057;-74
2022/01/10 11:54:26;;;;;;;30.75;7.65;;;7.00;90.00;;;;;;4824816;29;20054;-74
2022/01/10 11:57:03;;;;;;;30.55;7.13;;;7.10;90.00;;;;;;4823583;29;20426;-74
2022/01/10 11:59:42;;;;;;;25.80;6.40;;;7.10;90.00;;;;;;4824029;29;20058;-74
2022/01/10 12:02:23;;;;;;;32.00;7.05;;;7.20;90.00;;;;;;4822958;29;20331;-74
2022/01/10 12:05:00;;;;;;;41.70;8.13;;;7.30;89.90;;;;;;4824626;29;20419;-74
2022/01/10 12:07:28;;;;;;;33.60;7.63;;;7.40;89.70;;;;;;4822758;29;20495;-74
2022/01/10 12:10:17;;;;;;;31.85;7.35;;;7.50;89.60;;;;;;4824819;29;20380;-74
2022/01/10 12:12:49;;;;;;;32.35;6.57;;;7.60;89.60;;;;;;4824440;29;20158;-75
2022/01/10 12:15:17;;;;;;;36.85;8.73;;;7.60;89.50;;;;;;4823900;29;20078;-75
2022/01/10 12:17:44;;;;;;;37.42;7.18;;;7.70;89.20;;;;;;4807879;29;20057;-75
2022/01/10 12:20:12;;;;;;;31.05;7.43;;;7.60;89.10;;;;;;4808037;29;20403;-74
2022/01/10 12:22:40;;;;;;;27.58;7.75;;;7.60;89.10;;;;;;4823270;29;20050;-74
2022/01/10 12:25:08;;;;;;;25.52;6.93;;;7.60;89.10;;;;;;4824337;29;20059;-74
2022/01/10 12:27:37;;;;;;;30.40;7.20;;;7.60;89.10;;;;;;4823302;29;20418;-74
2022/01/10 12:30:05;;;;;;;26.20;6.18;;;7.50;89.10;;;;;;4824060;29;20050;-74
2022/01/10 12:32:33;;;;;;;27.27;7.03;;;7.50;89.10;;;;;;4823684;29;20053;-73
2022/01/10 12:35:01;;;;;;;32.13;6.97;;;7.50;89.10;;;;;;4823899;29;20050;-74
2022/01/10 12:37:29;;;;;;;26.77;7.15;;;7.50;89.10;;;;;;4824145;29;20474;-74
2022/01/10 12:39:57;;;;;;;25.15;6.45;;;7.50;89.10;;;;;;4833618;29;20061;-74
2022/01/10 12:42:29;;;;;;;46.60;8.60;;;7.50;89.20;;;;;;4829189;29;20038;-74
2022/01/10 12:44:58;;;;;;;23.88;7.38;;;7.50;89.20;;;;;;4830539;29;20081;-74
2022/01/10 12:47:26;;;;;;;29.00;6.88;;;7.40;89.10;;;;;;4832285;29;20054;-74
2022/01/10 12:49:54;;;;;;;28.52;7.32;;;7.50;89.20;;;;;;4830497;29;20065;-74
2022/01/10 12:52:22;;;;;;;32.53;7.10;;;7.50;89.20;;;;;;4831536;29;20061;-74
2022/01/10 12:54:51;;;;;;;29.05;7.35;;;7.40;89.20;;;;;;4828594;29;20061;-74
2022/01/10 12:57:18;;;;;;;31.05;6.82;;;7.40;89.20;;;;;;4825487;29;20049;-74
2022/01/10 12:59:47;;;;;;;28.30;6.90;;;7.40;89.20;;;;;;4810295;29;20391;-74
2022/01/10 13:02:14;;;;;;;35.33;7.18;;;7.40;89.20;;;;;;4831091;29;20049;-74
2022/01/10 13:05:04;;;;;;;31.60;7.43;;;7.40;89.30;;;;;;4828651;29;20046;-74
2022/01/10 13:07:39;;;;;;;35.25;7.03;;;7.40;89.30;;;;;;4828135;29;20605;-74
2022/01/10 13:10:11;;;;;;;35.38;7.40;;;7.40;89.30;;;;;;4830680;29;20046;-74